sensor_id;sensor_type;location;lat;lon;timestamp;P1;durP1;ratioP1;P2;durP2;ratioP2
71878;SDS011;59755;43.834;4.364;2022-07-31T00:00:42;5.30;;;1.83;;
71878;SDS011;59755;43.834;4.364;2022-07-31T00:03:09;4.85;;;1.70;;
71878;SDS011;59755;43.834;4.364;2022-07-31T00:05:35;5.00;;;2.10;;
71878;SDS011;59755;43.834;4.364;2022-07-31T00:08:01;4.35;;;2.05;;
71878;SDS011;59755;43.834;4.364;2022-07-31T00:10:27;5.28;;;2.15;;
71878;SDS011;59755;43.834;4.364;2022-07-31T00:12:53;4.30;;;2.03;;
71878;SDS011;59755;43.834;4.364;2022-07-31T00:15:19;5.20;;;2.10;;
71878;SDS011;59755;43.834;4.364;2022-07-31T00:17:45;4.88;;;2.22;;
71878;SDS011;59755;43.834;4.364;2022-07-31T00:20:12;4.90;;;1.90;;
71878;SDS011;59755;43.834;4.364;2022-07-31T00:22:39;6.40;;;2.20;;
71878;SDS011;59755;43.834;4.364;2022-07-31T00:25:06;5.07;;;2.03;;
71878;SDS011;59755;43.834;4.364;2022-07-31T00:27:32;6.07;;;2.08;;
71878;SDS011;59755;43.834;4.364;2022-07-31T00:29:58;5.43;;;2.20;;
71878;SDS011;59755;43.834;4.364;2022-07-31T00:32:24;4.47;;;2.10;;
71878;SDS011;59755;43.834;4.364;2022-07-31T00:34:50;6.13;;;2.08;;
71878;SDS011;59755;43.834;4.364;2022-07-31T00:37:16;5.65;;;1.95;;
71878;SDS011;59755;43.834;4.364;2022-07-31T00:39:41;4.72;;;2.10;;
71878;SDS011;59755;43.834;4.364;2022-07-31T00:42:17;5.22;;;1.98;;
71878;SDS011;59755;43.834;4.364;2022-07-31T00:44:44;4.47;;;2.13;;
71878;SDS011;59755;43.834;4.364;2022-07-31T00:47:10;4.78;;;2.20;;
71878;SDS011;59755;43.834;4.364;2022-07-31T00:49:36;4.90;;;2.08;;
71878;SDS011;59755;43.834;4.364;2022-07-31T00:52:01;5.00;;;2.20;;
71878;SDS011;59755;43.834;4.364;2022-07-31T00:54:27;5.10;;;2.17;;
71878;SDS011;59755;43.834;4.364;2022-07-31T00:56:53;5.28;;;2.25;;
71878;SDS011;59755;43.834;4.364;2022-07-31T00:59:19;5.00;;;2.28;;
71878;SDS011;59755;43.834;4.364;2022-07-31T01:01:44;5.40;;;2.00;;
71878;SDS011;59755;43.834;4.364;2022-07-31T01:04:11;4.82;;;2.03;;
71878;SDS011;59755;43.834;4.364;2022-07-31T01:06:39;5.85;;;2.15;;
71878;SDS011;59755;43.834;4.364;2022-07-31T01:09:05;4.93;;;2.10;;
71878;SDS011;59755;43.834;4.364;2022-07-31T01:11:37;5.25;;;2.30;;
71878;SDS011;59755;43.834;4.364;2022-07-31T01:14:06;4.50;;;1.90;;
71878;SDS011;59755;43.834;4.364;2022-07-31T01:16:35;5.15;;;2.25;;
71878;SDS011;59755;43.834;4.364;2022-07-31T01:19:04;5.45;;;2.25;;
71878;SDS011;59755;43.834;4.364;2022-07-31T01:21:42;5.65;;;2.30;;
71878;SDS011;59755;43.834;4.364;2022-07-31T01:29:46;6.53;;;2.22;;
71878;SDS011;59755;43.834;4.364;2022-07-31T01:32:20;5.85;;;2.47;;
71878;SDS011;59755;43.834;4.364;2022-07-31T01:34:56;4.60;;;2.08;;
71878;SDS011;59755;43.834;4.364;2022-07-31T01:37:32;4.57;;;2.20;;
71878;SDS011;59755;43.834;4.364;2022-07-31T01:40:05;5.07;;;2.35;;
71878;SDS011;59755;43.834;4.364;2022-07-31T01:42:36;4.78;;;2.22;;
71878;SDS011;59755;43.834;4.364;2022-07-31T01:45:05;4.85;;;2.13;;
71878;SDS011;59755;43.834;4.364;2022-07-31T01:47:34;6.00;;;2.17;;
71878;SDS011;59755;43.834;4.364;2022-07-31T01:50:01;5.57;;;2.13;;
71878;SDS011;59755;43.834;4.364;2022-07-31T01:52:29;4.97;;;2.38;;
71878;SDS011;59755;43.834;4.364;2022-07-31T01:54:57;6.28;;;2.03;;
71878;SDS011;59755;43.834;4.364;2022-07-31T01:57:25;4.38;;;2.08;;
71878;SDS011;59755;43.834;4.364;2022-07-31T01:59:54;7.18;;;2.15;;
71878;SDS011;59755;43.834;4.364;2022-07-31T02:02:24;5.43;;;2.20;;
71878;SDS011;59755;43.834;4.364;2022-07-31T02:04:51;5.82;;;2.35;;
71878;SDS011;59755;43.834;4.364;2022-07-31T02:07:17;4.65;;;1.92;;
71878;SDS011;59755;43.834;4.364;2022-07-31T02:09:44;5.50;;;2.10;;
71878;SDS011;59755;43.834;4.364;2022-07-31T02:12:11;4.57;;;2.20;;
71878;SDS011;59755;43.834;4.364;2022-07-31T02:14:37;5.38;;;2.00;;
71878;SDS011;59755;43.834;4.364;2022-07-31T02:17:05;4.43;;;2.10;;
71878;SDS011;59755;43.834;4.364;2022-07-31T02:19:33;5.47;;;2.30;;
71878;SDS011;59755;43.834;4.364;2022-07-31T02:22:01;4.65;;;2.10;;
71878;SDS011;59755;43.834;4.364;2022-07-31T02:24:27;4.85;;;2.33;;
71878;SDS011;59755;43.834;4.364;2022-07-31T02:26:53;4.90;;;1.98;;
71878;SDS011;59755;43.834;4.364;2022-07-31T02:29:21;5.85;;;2.20;;
71878;SDS011;59755;43.834;4.364;2022-07-31T02:31:48;6.43;;;2.10;;
71878;SDS011;59755;43.834;4.364;2022-07-31T02:34:15;5.53;;;1.92;;
71878;SDS011;59755;43.834;4.364;2022-07-31T02:36:43;4.18;;;1.95;;
71878;SDS011;59755;43.834;4.364;2022-07-31T02:39:11;5.68;;;2.00;;
71878;SDS011;59755;43.834;4.364;2022-07-31T02:41:39;5.13;;;2.03;;
71878;SDS011;59755;43.834;4.364;2022-07-31T02:44:06;4.60;;;2.40;;
71878;SDS011;59755;43.834;4.364;2022-07-31T02:46:35;4.68;;;2.10;;
71878;SDS011;59755;43.834;4.364;2022-07-31T02:49:01;6.78;;;2.20;;
71878;SDS011;59755;43.834;4.364;2022-07-31T02:51:27;5.18;;;2.40;;
71878;SDS011;59755;43.834;4.364;2022-07-31T02:53:53;5.55;;;2.10;;
71878;SDS011;59755;43.834;4.364;2022-07-31T02:56:19;4.53;;;2.10;;
71878;SDS011;59755;43.834;4.364;2022-07-31T02:58:47;6.00;;;2.20;;
71878;SDS011;59755;43.834;4.364;2022-07-31T03:01:13;4.95;;;2.17;;
71878;SDS011;59755;43.834;4.364;2022-07-31T03:03:39;5.18;;;2.22;;
71878;SDS011;59755;43.834;4.364;2022-07-31T03:06:04;5.32;;;2.25;;
71878;SDS011;59755;43.834;4.364;2022-07-31T03:08:30;5.38;;;2.10;;
71878;SDS011;59755;43.834;4.364;2022-07-31T03:10:56;4.88;;;2.10;;
71878;SDS011;59755;43.834;4.364;2022-07-31T03:13:22;5.93;;;2.40;;
71878;SDS011;59755;43.834;4.364;2022-07-31T03:15:50;5.28;;;2.15;;
71878;SDS011;59755;43.834;4.364;2022-07-31T03:18:19;5.38;;;2.10;;
71878;SDS011;59755;43.834;4.364;2022-07-31T03:20:45;5.00;;;2.10;;
71878;SDS011;59755;43.834;4.364;2022-07-31T03:23:16;6.43;;;2.50;;
71878;SDS011;59755;43.834;4.364;2022-07-31T03:25:45;5.82;;;2.10;;
71878;SDS011;59755;43.834;4.364;2022-07-31T03:28:13;4.38;;;1.70;;
71878;SDS011;59755;43.834;4.364;2022-07-31T03:30:38;7.63;;;2.47;;
71878;SDS011;59755;43.834;4.364;2022-07-31T03:33:04;9.38;;;2.30;;
71878;SDS011;59755;43.834;4.364;2022-07-31T03:35:30;5.57;;;2.30;;
71878;SDS011;59755;43.834;4.364;2022-07-31T03:37:58;6.55;;;2.17;;
71878;SDS011;59755;43.834;4.364;2022-07-31T03:40:24;5.82;;;2.20;;
71878;SDS011;59755;43.834;4.364;2022-07-31T03:42:50;4.60;;;2.00;;
71878;SDS011;59755;43.834;4.364;2022-07-31T03:45:17;6.10;;;2.20;;
71878;SDS011;59755;43.834;4.364;2022-07-31T03:47:44;4.13;;;1.88;;
71878;SDS011;59755;43.834;4.364;2022-07-31T03:50:10;6.38;;;2.30;;
71878;SDS011;59755;43.834;4.364;2022-07-31T03:52:38;4.38;;;1.90;;
71878;SDS011;59755;43.834;4.364;2022-07-31T03:55:04;5.40;;;2.00;;
71878;SDS011;59755;43.834;4.364;2022-07-31T03:57:31;5.22;;;2.17;;
71878;SDS011;59755;43.834;4.364;2022-07-31T03:59:58;4.10;;;1.75;;
71878;SDS011;59755;43.834;4.364;2022-07-31T04:02:26;6.28;;;2.17;;
71878;SDS011;59755;43.834;4.364;2022-07-31T04:04:52;5.30;;;2.13;;
71878;SDS011;59755;43.834;4.364;2022-07-31T04:07:18;4.78;;;2.10;;
71878;SDS011;59755;43.834;4.364;2022-07-31T04:09:45;4.82;;;1.90;;
71878;SDS011;59755;43.834;4.364;2022-07-31T04:12:11;5.13;;;2.15;;
71878;SDS011;59755;43.834;4.364;2022-07-31T04:14:37;4.95;;;2.13;;
71878;SDS011;59755;43.834;4.364;2022-07-31T04:17:02;4.78;;;2.20;;
71878;SDS011;59755;43.834;4.364;2022-07-31T04:19:28;5.53;;;2.25;;
71878;SDS011;59755;43.834;4.364;2022-07-31T04:21:55;4.50;;;2.40;;
71878;SDS011;59755;43.834;4.364;2022-07-31T04:24:22;6.30;;;2.40;;
71878;SDS011;59755;43.834;4.364;2022-07-31T04:26:48;7.38;;;2.35;;
71878;SDS011;59755;43.834;4.364;2022-07-31T04:29:14;5.95;;;2.20;;
71878;SDS011;59755;43.834;4.364;2022-07-31T04:31:40;4.57;;;2.10;;
71878;SDS011;59755;43.834;4.364;2022-07-31T04:34:06;6.05;;;2.35;;
71878;SDS011;59755;43.834;4.364;2022-07-31T04:36:31;6.38;;;2.40;;
71878;SDS011;59755;43.834;4.364;2022-07-31T04:38:58;6.65;;;2.22;;
71878;SDS011;59755;43.834;4.364;2022-07-31T04:41:24;5.90;;;2.30;;
71878;SDS011;59755;43.834;4.364;2022-07-31T04:43:50;5.55;;;2.30;;
71878;SDS011;59755;43.834;4.364;2022-07-31T04:46:16;6.95;;;2.42;;
71878;SDS011;59755;43.834;4.364;2022-07-31T04:48:42;5.85;;;2.20;;
71878;SDS011;59755;43.834;4.364;2022-07-31T04:51:08;4.75;;;2.03;;
71878;SDS011;59755;43.834;4.364;2022-07-31T04:53:39;4.80;;;2.00;;
71878;SDS011;59755;43.834;4.364;2022-07-31T04:56:05;5.70;;;2.03;;
71878;SDS011;59755;43.834;4.364;2022-07-31T04:58:49;5.25;;;2.40;;
71878;SDS011;59755;43.834;4.364;2022-07-31T05:01:15;5.20;;;2.20;;
71878;SDS011;59755;43.834;4.364;2022-07-31T05:03:40;4.90;;;2.20;;
71878;SDS011;59755;43.834;4.364;2022-07-31T05:06:09;7.78;;;2.40;;
71878;SDS011;59755;43.834;4.364;2022-07-31T05:08:35;6.03;;;2.10;;
71878;SDS011;59755;43.834;4.364;2022-07-31T05:11:02;6.40;;;2.50;;
71878;SDS011;59755;43.834;4.364;2022-07-31T05:13:47;5.93;;;2.50;;
71878;SDS011;59755;43.834;4.364;2022-07-31T05:16:23;4.90;;;2.00;;
71878;SDS011;59755;43.834;4.364;2022-07-31T05:18:49;5.65;;;2.20;;
71878;SDS011;59755;43.834;4.364;2022-07-31T05:21:18;4.80;;;2.00;;
71878;SDS011;59755;43.834;4.364;2022-07-31T05:23:45;5.22;;;2.17;;
71878;SDS011;59755;43.834;4.364;2022-07-31T05:26:12;6.30;;;2.00;;
71878;SDS011;59755;43.834;4.364;2022-07-31T05:28:39;5.35;;;2.17;;
71878;SDS011;59755;43.834;4.364;2022-07-31T05:31:06;6.05;;;2.25;;
71878;SDS011;59755;43.834;4.364;2022-07-31T05:33:33;5.05;;;2.28;;
71878;SDS011;59755;43.834;4.364;2022-07-31T05:35:59;5.00;;;2.00;;
71878;SDS011;59755;43.834;4.364;2022-07-31T05:38:26;6.38;;;2.10;;
71878;SDS011;59755;43.834;4.364;2022-07-31T05:40:52;4.70;;;2.20;;
71878;SDS011;59755;43.834;4.364;2022-07-31T05:43:18;5.25;;;2.40;;
71878;SDS011;59755;43.834;4.364;2022-07-31T05:45:44;5.65;;;1.90;;
71878;SDS011;59755;43.834;4.364;2022-07-31T05:48:13;5.25;;;2.28;;
71878;SDS011;59755;43.834;4.364;2022-07-31T05:50:43;6.72;;;2.20;;
71878;SDS011;59755;43.834;4.364;2022-07-31T05:53:10;5.78;;;2.35;;
71878;SDS011;59755;43.834;4.364;2022-07-31T05:55:38;5.07;;;2.17;;
71878;SDS011;59755;43.834;4.364;2022-07-31T05:58:05;6.30;;;2.03;;
71878;SDS011;59755;43.834;4.364;2022-07-31T06:00:31;4.18;;;1.92;;
71878;SDS011;59755;43.834;4.364;2022-07-31T06:02:56;5.97;;;2.08;;
71878;SDS011;59755;43.834;4.364;2022-07-31T06:05:24;4.65;;;2.08;;
71878;SDS011;59755;43.834;4.364;2022-07-31T06:07:50;6.57;;;2.00;;
71878;SDS011;59755;43.834;4.364;2022-07-31T06:10:16;4.93;;;2.00;;
71878;SDS011;59755;43.834;4.364;2022-07-31T06:12:42;4.53;;;1.90;;
71878;SDS011;59755;43.834;4.364;2022-07-31T06:15:08;6.78;;;2.20;;
71878;SDS011;59755;43.834;4.364;2022-07-31T06:17:34;5.03;;;2.17;;
71878;SDS011;59755;43.834;4.364;2022-07-31T06:20:02;4.72;;;2.08;;
71878;SDS011;59755;43.834;4.364;2022-07-31T06:22:28;5.90;;;2.17;;
71878;SDS011;59755;43.834;4.364;2022-07-31T06:24:54;5.72;;;2.22;;
71878;SDS011;59755;43.834;4.364;2022-07-31T06:27:20;6.68;;;2.10;;
71878;SDS011;59755;43.834;4.364;2022-07-31T06:29:46;5.68;;;2.40;;
71878;SDS011;59755;43.834;4.364;2022-07-31T06:32:13;4.78;;;1.90;;
71878;SDS011;59755;43.834;4.364;2022-07-31T06:34:39;6.10;;;2.03;;
71878;SDS011;59755;43.834;4.364;2022-07-31T06:37:05;4.70;;;2.17;;
71878;SDS011;59755;43.834;4.364;2022-07-31T06:39:31;4.60;;;2.13;;
71878;SDS011;59755;43.834;4.364;2022-07-31T06:41:57;4.65;;;2.22;;
71878;SDS011;59755;43.834;4.364;2022-07-31T06:44:23;7.15;;;2.10;;
71878;SDS011;59755;43.834;4.364;2022-07-31T06:46:49;5.93;;;2.22;;
71878;SDS011;59755;43.834;4.364;2022-07-31T06:49:18;4.40;;;2.30;;
71878;SDS011;59755;43.834;4.364;2022-07-31T06:51:44;6.38;;;2.10;;
71878;SDS011;59755;43.834;4.364;2022-07-31T06:54:10;5.53;;;2.30;;
71878;SDS011;59755;43.834;4.364;2022-07-31T06:56:36;4.78;;;2.05;;
71878;SDS011;59755;43.834;4.364;2022-07-31T06:59:04;6.35;;;2.22;;
71878;SDS011;59755;43.834;4.364;2022-07-31T07:01:30;5.43;;;2.20;;
71878;SDS011;59755;43.834;4.364;2022-07-31T07:03:57;5.18;;;1.90;;
71878;SDS011;59755;43.834;4.364;2022-07-31T07:06:23;4.90;;;2.20;;
71878;SDS011;59755;43.834;4.364;2022-07-31T07:08:49;6.03;;;2.15;;
71878;SDS011;59755;43.834;4.364;2022-07-31T07:11:15;4.40;;;2.10;;
71878;SDS011;59755;43.834;4.364;2022-07-31T07:13:41;6.10;;;2.20;;
71878;SDS011;59755;43.834;4.364;2022-07-31T07:16:07;6.05;;;2.20;;
71878;SDS011;59755;43.834;4.364;2022-07-31T07:18:33;4.90;;;1.85;;
71878;SDS011;59755;43.834;4.364;2022-07-31T07:20:59;5.45;;;1.90;;
71878;SDS011;59755;43.834;4.364;2022-07-31T07:23:24;6.50;;;2.20;;
71878;SDS011;59755;43.834;4.364;2022-07-31T07:25:50;5.55;;;2.10;;
71878;SDS011;59755;43.834;4.364;2022-07-31T07:28:16;5.78;;;2.20;;
71878;SDS011;59755;43.834;4.364;2022-07-31T07:30:43;5.80;;;2.08;;
71878;SDS011;59755;43.834;4.364;2022-07-31T07:33:08;5.55;;;2.03;;
71878;SDS011;59755;43.834;4.364;2022-07-31T07:35:34;4.88;;;2.33;;
71878;SDS011;59755;43.834;4.364;2022-07-31T07:38:00;3.85;;;1.83;;
71878;SDS011;59755;43.834;4.364;2022-07-31T07:40:27;4.43;;;2.03;;
71878;SDS011;59755;43.834;4.364;2022-07-31T07:42:53;5.15;;;2.08;;
71878;SDS011;59755;43.834;4.364;2022-07-31T07:45:18;4.60;;;2.03;;
71878;SDS011;59755;43.834;4.364;2022-07-31T07:47:44;7.13;;;2.17;;
71878;SDS011;59755;43.834;4.364;2022-07-31T07:50:10;4.63;;;2.08;;
71878;SDS011;59755;43.834;4.364;2022-07-31T07:52:36;5.10;;;2.40;;
71878;SDS011;59755;43.834;4.364;2022-07-31T07:55:04;6.22;;;2.13;;
71878;SDS011;59755;43.834;4.364;2022-07-31T07:57:30;5.97;;;2.40;;
71878;SDS011;59755;43.834;4.364;2022-07-31T08:00:03;4.72;;;2.10;;
71878;SDS011;59755;43.834;4.364;2022-07-31T08:02:31;4.45;;;2.00;;
71878;SDS011;59755;43.834;4.364;2022-07-31T08:04:58;7.32;;;2.03;;
71878;SDS011;59755;43.834;4.364;2022-07-31T08:07:28;6.55;;;2.25;;
71878;SDS011;59755;43.834;4.364;2022-07-31T08:12:24;5.93;;;1.90;;
71878;SDS011;59755;43.834;4.364;2022-07-31T08:14:51;5.53;;;2.00;;
71878;SDS011;59755;43.834;4.364;2022-07-31T08:17:17;6.63;;;1.92;;
71878;SDS011;59755;43.834;4.364;2022-07-31T08:19:42;6.28;;;2.13;;
71878;SDS011;59755;43.834;4.364;2022-07-31T08:22:08;6.38;;;2.17;;
71878;SDS011;59755;43.834;4.364;2022-07-31T08:24:34;4.60;;;1.80;;
71878;SDS011;59755;43.834;4.364;2022-07-31T08:27:00;5.10;;;2.00;;
71878;SDS011;59755;43.834;4.364;2022-07-31T08:29:44;5.20;;;1.88;;
71878;SDS011;59755;43.834;4.364;2022-07-31T08:32:10;4.70;;;2.13;;
71878;SDS011;59755;43.834;4.364;2022-07-31T08:34:37;5.70;;;2.13;;
71878;SDS011;59755;43.834;4.364;2022-07-31T08:37:03;5.13;;;1.95;;
71878;SDS011;59755;43.834;4.364;2022-07-31T08:39:30;4.57;;;2.00;;
71878;SDS011;59755;43.834;4.364;2022-07-31T08:41:57;4.53;;;2.00;;
71878;SDS011;59755;43.834;4.364;2022-07-31T08:44:23;4.57;;;1.90;;
71878;SDS011;59755;43.834;4.364;2022-07-31T08:46:49;5.85;;;2.10;;
71878;SDS011;59755;43.834;4.364;2022-07-31T08:49:19;6.20;;;2.00;;
71878;SDS011;59755;43.834;4.364;2022-07-31T08:51:49;5.40;;;2.05;;
71878;SDS011;59755;43.834;4.364;2022-07-31T08:54:16;5.28;;;1.92;;
71878;SDS011;59755;43.834;4.364;2022-07-31T08:56:43;6.53;;;1.88;;
71878;SDS011;59755;43.834;4.364;2022-07-31T08:59:11;8.00;;;2.30;;
71878;SDS011;59755;43.834;4.364;2022-07-31T09:01:37;5.05;;;1.70;;
71878;SDS011;59755;43.834;4.364;2022-07-31T09:04:03;4.97;;;1.90;;
71878;SDS011;59755;43.834;4.364;2022-07-31T09:06:28;4.10;;;1.90;;
71878;SDS011;59755;43.834;4.364;2022-07-31T09:08:54;5.57;;;2.08;;
71878;SDS011;59755;43.834;4.364;2022-07-31T09:11:21;4.43;;;2.00;;
71878;SDS011;59755;43.834;4.364;2022-07-31T09:14:02;4.70;;;1.90;;
71878;SDS011;59755;43.834;4.364;2022-07-31T09:16:42;5.22;;;2.10;;
71878;SDS011;59755;43.834;4.364;2022-07-31T09:19:10;6.05;;;2.17;;
71878;SDS011;59755;43.834;4.364;2022-07-31T09:21:40;6.30;;;2.30;;
71878;SDS011;59755;43.834;4.364;2022-07-31T09:24:07;5.03;;;2.00;;
71878;SDS011;59755;43.834;4.364;2022-07-31T09:26:34;5.43;;;2.28;;
71878;SDS011;59755;43.834;4.364;2022-07-31T09:29:01;6.65;;;2.20;;
71878;SDS011;59755;43.834;4.364;2022-07-31T09:31:32;5.65;;;2.13;;
71878;SDS011;59755;43.834;4.364;2022-07-31T09:33:59;5.47;;;1.98;;
71878;SDS011;59755;43.834;4.364;2022-07-31T09:36:25;4.65;;;1.90;;
71878;SDS011;59755;43.834;4.364;2022-07-31T09:38:51;4.30;;;2.00;;
71878;SDS011;59755;43.834;4.364;2022-07-31T09:41:20;5.10;;;1.75;;
71878;SDS011;59755;43.834;4.364;2022-07-31T09:43:59;5.38;;;1.85;;
71878;SDS011;59755;43.834;4.364;2022-07-31T09:46:45;5.22;;;1.98;;
71878;SDS011;59755;43.834;4.364;2022-07-31T09:49:14;6.03;;;2.10;;
71878;SDS011;59755;43.834;4.364;2022-07-31T09:51:43;4.80;;;1.92;;
71878;SDS011;59755;43.834;4.364;2022-07-31T09:54:20;5.18;;;2.17;;
71878;SDS011;59755;43.834;4.364;2022-07-31T09:56:47;5.78;;;2.10;;
71878;SDS011;59755;43.834;4.364;2022-07-31T09:59:14;5.70;;;2.20;;
71878;SDS011;59755;43.834;4.364;2022-07-31T10:01:40;4.43;;;1.85;;
71878;SDS011;59755;43.834;4.364;2022-07-31T10:04:07;6.80;;;2.00;;
71878;SDS011;59755;43.834;4.364;2022-07-31T10:06:34;5.45;;;1.80;;
71878;SDS011;59755;43.834;4.364;2022-07-31T10:09:01;5.93;;;1.92;;
71878;SDS011;59755;43.834;4.364;2022-07-31T10:11:29;7.15;;;2.13;;
71878;SDS011;59755;43.834;4.364;2022-07-31T10:13:58;4.22;;;1.90;;
71878;SDS011;59755;43.834;4.364;2022-07-31T10:16:25;5.03;;;1.97;;
71878;SDS011;59755;43.834;4.364;2022-07-31T10:18:58;4.80;;;1.75;;
71878;SDS011;59755;43.834;4.364;2022-07-31T10:21:26;5.25;;;1.75;;
71878;SDS011;59755;43.834;4.364;2022-07-31T10:23:58;4.15;;;1.65;;
71878;SDS011;59755;43.834;4.364;2022-07-31T10:26:27;6.32;;;2.00;;
71878;SDS011;59755;43.834;4.364;2022-07-31T10:28:54;4.00;;;1.85;;
71878;SDS011;59755;43.834;4.364;2022-07-31T10:31:21;4.95;;;1.85;;
71878;SDS011;59755;43.834;4.364;2022-07-31T10:33:47;4.25;;;1.83;;
71878;SDS011;59755;43.834;4.364;2022-07-31T10:36:20;4.10;;;1.60;;
71878;SDS011;59755;43.834;4.364;2022-07-31T10:38:57;4.30;;;1.60;;
71878;SDS011;59755;43.834;4.364;2022-07-31T10:44:31;4.22;;;1.80;;
71878;SDS011;59755;43.834;4.364;2022-07-31T10:46:59;4.55;;;2.05;;
71878;SDS011;59755;43.834;4.364;2022-07-31T10:49:47;5.30;;;1.88;;
71878;SDS011;59755;43.834;4.364;2022-07-31T10:52:14;5.45;;;2.05;;
71878;SDS011;59755;43.834;4.364;2022-07-31T10:54:51;4.40;;;1.92;;
71878;SDS011;59755;43.834;4.364;2022-07-31T10:57:22;4.85;;;1.80;;
71878;SDS011;59755;43.834;4.364;2022-07-31T10:59:53;4.60;;;1.67;;
71878;SDS011;59755;43.834;4.364;2022-07-31T11:02:40;4.90;;;1.92;;
71878;SDS011;59755;43.834;4.364;2022-07-31T11:05:05;4.88;;;2.10;;
71878;SDS011;59755;43.834;4.364;2022-07-31T11:07:32;7.38;;;2.00;;
71878;SDS011;59755;43.834;4.364;2022-07-31T11:10:08;5.20;;;1.80;;
71878;SDS011;59755;43.834;4.364;2022-07-31T11:12:37;4.88;;;1.90;;
71878;SDS011;59755;43.834;4.364;2022-07-31T11:15:04;5.68;;;2.03;;
71878;SDS011;59755;43.834;4.364;2022-07-31T11:17:50;6.80;;;2.00;;
71878;SDS011;59755;43.834;4.364;2022-07-31T11:20:35;5.95;;;1.92;;
71878;SDS011;59755;43.834;4.364;2022-07-31T11:23:02;4.65;;;1.80;;
71878;SDS011;59755;43.834;4.364;2022-07-31T11:25:30;5.88;;;1.90;;
71878;SDS011;59755;43.834;4.364;2022-07-31T11:31:13;5.68;;;1.88;;
71878;SDS011;59755;43.834;4.364;2022-07-31T11:33:34;5.55;;;2.00;;
71878;SDS011;59755;43.834;4.364;2022-07-31T11:36:08;4.43;;;1.80;;
71878;SDS011;59755;43.834;4.364;2022-07-31T11:38:43;3.97;;;1.70;;
71878;SDS011;59755;43.834;4.364;2022-07-31T11:41:10;4.88;;;1.70;;
71878;SDS011;59755;43.834;4.364;2022-07-31T11:43:36;4.72;;;2.10;;
71878;SDS011;59755;43.834;4.364;2022-07-31T11:46:11;5.22;;;1.80;;
71878;SDS011;59755;43.834;4.364;2022-07-31T11:48:38;5.35;;;1.90;;
71878;SDS011;59755;43.834;4.364;2022-07-31T11:51:04;4.13;;;1.63;;
71878;SDS011;59755;43.834;4.364;2022-07-31T11:53:37;4.90;;;1.83;;
71878;SDS011;59755;43.834;4.364;2022-07-31T11:56:04;4.75;;;2.00;;
71878;SDS011;59755;43.834;4.364;2022-07-31T11:58:30;5.75;;;2.00;;
71878;SDS011;59755;43.834;4.364;2022-07-31T12:00:57;3.75;;;1.70;;
71878;SDS011;59755;43.834;4.364;2022-07-31T12:03:27;4.00;;;1.63;;
71878;SDS011;59755;43.834;4.364;2022-07-31T12:06:03;3.92;;;1.60;;
71878;SDS011;59755;43.834;4.364;2022-07-31T12:08:30;6.15;;;1.98;;
71878;SDS011;59755;43.834;4.364;2022-07-31T12:10:59;4.30;;;1.80;;
71878;SDS011;59755;43.834;4.364;2022-07-31T12:13:25;5.47;;;1.83;;
71878;SDS011;59755;43.834;4.364;2022-07-31T12:15:53;4.40;;;1.70;;
71878;SDS011;59755;43.834;4.364;2022-07-31T12:18:18;4.93;;;1.80;;
71878;SDS011;59755;43.834;4.364;2022-07-31T12:21:18;4.50;;;1.77;;
71878;SDS011;59755;43.834;4.364;2022-07-31T12:26:11;4.25;;;1.58;;
71878;SDS011;59755;43.834;4.364;2022-07-31T12:28:57;5.13;;;1.70;;
71878;SDS011;59755;43.834;4.364;2022-07-31T12:31:27;4.00;;;1.70;;
71878;SDS011;59755;43.834;4.364;2022-07-31T12:33:55;3.88;;;1.73;;
71878;SDS011;59755;43.834;4.364;2022-07-31T12:36:21;4.63;;;1.98;;
71878;SDS011;59755;43.834;4.364;2022-07-31T12:38:56;4.32;;;1.90;;
71878;SDS011;59755;43.834;4.364;2022-07-31T12:41:24;5.03;;;1.90;;
71878;SDS011;59755;43.834;4.364;2022-07-31T12:43:51;4.13;;;1.73;;
71878;SDS011;59755;43.834;4.364;2022-07-31T12:46:16;4.50;;;1.75;;
71878;SDS011;59755;43.834;4.364;2022-07-31T12:48:42;3.65;;;1.60;;
71878;SDS011;59755;43.834;4.364;2022-07-31T12:51:08;3.35;;;1.50;;
71878;SDS011;59755;43.834;4.364;2022-07-31T12:53:34;4.28;;;1.70;;
71878;SDS011;59755;43.834;4.364;2022-07-31T12:56:00;4.47;;;1.60;;
71878;SDS011;59755;43.834;4.364;2022-07-31T12:58:26;4.05;;;1.73;;
71878;SDS011;59755;43.834;4.364;2022-07-31T13:00:51;5.10;;;1.70;;
71878;SDS011;59755;43.834;4.364;2022-07-31T13:03:18;3.75;;;1.55;;
71878;SDS011;59755;43.834;4.364;2022-07-31T13:05:44;4.65;;;1.83;;
71878;SDS011;59755;43.834;4.364;2022-07-31T13:08:10;3.85;;;1.60;;
71878;SDS011;59755;43.834;4.364;2022-07-31T13:10:37;3.90;;;1.70;;
71878;SDS011;59755;43.834;4.364;2022-07-31T13:13:02;3.65;;;1.50;;
71878;SDS011;59755;43.834;4.364;2022-07-31T13:15:28;3.95;;;1.60;;
71878;SDS011;59755;43.834;4.364;2022-07-31T13:17:55;4.00;;;1.60;;
71878;SDS011;59755;43.834;4.364;2022-07-31T13:20:26;3.78;;;1.50;;
71878;SDS011;59755;43.834;4.364;2022-07-31T13:22:52;3.78;;;1.42;;
71878;SDS011;59755;43.834;4.364;2022-07-31T13:25:17;3.60;;;1.50;;
71878;SDS011;59755;43.834;4.364;2022-07-31T13:27:44;3.63;;;1.50;;
71878;SDS011;59755;43.834;4.364;2022-07-31T13:30:10;4.63;;;1.60;;
71878;SDS011;59755;43.834;4.364;2022-07-31T13:32:36;5.13;;;1.60;;
71878;SDS011;59755;43.834;4.364;2022-07-31T13:35:01;4.03;;;1.70;;
71878;SDS011;59755;43.834;4.364;2022-07-31T13:37:28;4.00;;;1.65;;
71878;SDS011;59755;43.834;4.364;2022-07-31T13:39:53;5.22;;;1.90;;
71878;SDS011;59755;43.834;4.364;2022-07-31T13:42:19;4.40;;;1.60;;
71878;SDS011;59755;43.834;4.364;2022-07-31T13:44:45;6.53;;;1.70;;
71878;SDS011;59755;43.834;4.364;2022-07-31T13:47:10;4.75;;;1.58;;
71878;SDS011;59755;43.834;4.364;2022-07-31T13:49:36;3.63;;;1.50;;
71878;SDS011;59755;43.834;4.364;2022-07-31T13:52:02;5.13;;;1.80;;
71878;SDS011;59755;43.834;4.364;2022-07-31T13:54:27;4.30;;;1.90;;
71878;SDS011;59755;43.834;4.364;2022-07-31T13:56:54;4.07;;;1.63;;
71878;SDS011;59755;43.834;4.364;2022-07-31T13:59:20;4.70;;;2.00;;
71878;SDS011;59755;43.834;4.364;2022-07-31T14:01:46;3.78;;;1.60;;
71878;SDS011;59755;43.834;4.364;2022-07-31T14:04:16;3.80;;;1.70;;
71878;SDS011;59755;43.834;4.364;2022-07-31T14:06:43;3.97;;;1.60;;
71878;SDS011;59755;43.834;4.364;2022-07-31T14:09:08;4.88;;;1.70;;
71878;SDS011;59755;43.834;4.364;2022-07-31T14:11:34;3.95;;;1.77;;
71878;SDS011;59755;43.834;4.364;2022-07-31T14:14:00;6.85;;;2.00;;
71878;SDS011;59755;43.834;4.364;2022-07-31T14:16:25;4.07;;;1.70;;
71878;SDS011;59755;43.834;4.364;2022-07-31T14:18:51;4.70;;;1.90;;
71878;SDS011;59755;43.834;4.364;2022-07-31T14:21:17;5.88;;;1.88;;
71878;SDS011;59755;43.834;4.364;2022-07-31T14:23:43;4.28;;;1.80;;
71878;SDS011;59755;43.834;4.364;2022-07-31T14:26:08;4.40;;;2.00;;
71878;SDS011;59755;43.834;4.364;2022-07-31T14:28:34;4.75;;;2.00;;
71878;SDS011;59755;43.834;4.364;2022-07-31T14:31:00;5.95;;;1.90;;
71878;SDS011;59755;43.834;4.364;2022-07-31T14:33:26;3.80;;;1.83;;
71878;SDS011;59755;43.834;4.364;2022-07-31T14:35:51;5.45;;;2.10;;
71878;SDS011;59755;43.834;4.364;2022-07-31T14:38:17;5.50;;;1.80;;
71878;SDS011;59755;43.834;4.364;2022-07-31T14:40:43;4.75;;;1.63;;
71878;SDS011;59755;43.834;4.364;2022-07-31T14:43:09;4.10;;;1.70;;
71878;SDS011;59755;43.834;4.364;2022-07-31T14:45:35;4.97;;;1.90;;
71878;SDS011;59755;43.834;4.364;2022-07-31T14:48:01;3.90;;;1.80;;
71878;SDS011;59755;43.834;4.364;2022-07-31T14:50:27;5.30;;;2.00;;
71878;SDS011;59755;43.834;4.364;2022-07-31T14:52:53;5.20;;;2.00;;
71878;SDS011;59755;43.834;4.364;2022-07-31T14:55:20;4.93;;;1.73;;
71878;SDS011;59755;43.834;4.364;2022-07-31T14:57:48;4.68;;;1.90;;
71878;SDS011;59755;43.834;4.364;2022-07-31T15:00:15;5.05;;;1.83;;
71878;SDS011;59755;43.834;4.364;2022-07-31T15:02:42;4.47;;;2.00;;
71878;SDS011;59755;43.834;4.364;2022-07-31T15:05:09;4.15;;;1.88;;
71878;SDS011;59755;43.834;4.364;2022-07-31T15:07:35;5.28;;;2.10;;